Time;durP1;ratioP1;P1;durP2;ratioP2;P2;SDS_P1;SDS_P2;PMS_P1;PMS_P2;Temp;Humidity;BMP_temperature;BMP_pressure;BME280_temperature;BME280_humidity;BME280_pressure;Samples;Min_cycle;Max_cycle;Signal;HPM_P1;HPM_P2
2021/12/21 00:04:51;;;;;;;40.87;21.43;;;;;-1.10;102163.00;;;;10448120;28;20189;-78
2021/12/21 00:09:53;;;;;;;57.83;26.43;;;;;-1.20;102168.00;;;;10465520;28;20225;-79
2021/12/21 00:15:03;;;;;;;64.57;30.27;;;;;-1.20;102158.00;;;;10447989;28;20232;-78
2021/12/21 00:25:23;;;;;;;64.27;30.37;;;;;-1.40;102156.00;;;;10521864;28;20255;-79
2021/12/21 00:30:25;;;;;;;53.90;27.43;;;;;-1.40;102160.00;;;;10472117;28;20276;-78
2021/12/21 00:35:27;;;;;;;50.97;27.37;;;;;-1.40;102153.00;;;;10452829;28;20355;-78
2021/12/21 00:40:29;;;;;;;49.33;26.33;;;;;-1.50;102159.00;;;;10517233;28;20243;-78
2021/12/21 00:45:31;;;;;;;47.30;24.20;;;;;-1.50;102153.00;;;;10497532;28;20189;-78
2021/12/21 00:50:33;;;;;;;45.03;23.67;;;;;-1.60;102155.00;;;;10475666;28;20197;-78
2021/12/21 00:55:34;;;;;;;48.10;22.23;;;;;-1.60;102158.00;;;;10455354;28;20214;-78
2021/12/21 01:00:36;;;;;;;45.67;22.53;;;;;-1.60;102151.00;;;;10488113;28;20186;-78
2021/12/21 01:05:51;;;;;;;40.63;21.57;;;;;-1.70;102157.00;;;;10488179;28;20190;-78
2021/12/21 01:11:17;;;;;;;39.70;20.93;;;;;-1.70;102157.00;;;;10480945;28;20244;-78
2021/12/21 01:21:28;;;;;;;40.77;21.57;;;;;-1.80;102154.00;;;;10463307;28;20198;-78
2021/12/21 01:27:11;;;;;;;45.80;22.20;;;;;-1.80;102148.00;;;;10448504;28;20197;-78
2021/12/21 01:42:26;;;;;;;44.27;21.97;;;;;-1.90;102142.00;;;;10445848;28;20221;-78
2021/12/21 01:52:49;;;;;;;48.57;25.30;;;;;-1.90;102137.00;;;;10478764;28;20210;-78
2021/12/21 01:57:50;;;;;;;47.10;22.60;;;;;-1.90;102136.00;;;;10461284;28;20198;-78
2021/12/21 02:02:52;;;;;;;48.57;21.70;;;;;-1.90;102129.00;;;;10461385;28;20221;-77
2021/12/21 02:07:55;;;;;;;44.93;21.40;;;;;-2.00;102118.00;;;;10489081;28;20197;-78
2021/12/21 02:12:57;;;;;;;43.47;19.67;;;;;-2.00;102115.00;;;;10509537;28;20269;-78
2021/12/21 02:23:12;;;;;;;38.57;17.67;;;;;-2.00;102100.00;;;;10525992;28;20177;-77
2021/12/21 02:33:20;;;;;;;46.27;19.10;;;;;-2.10;102101.00;;;;10491244;28;20260;-77
2021/12/21 02:38:22;;;;;;;40.37;18.70;;;;;-2.10;102101.00;;;;10462435;28;20250;-78
2021/12/21 02:43:28;;;;;;;39.13;19.87;;;;;-2.10;102101.00;;;;10509000;28;20594;-78
2021/12/21 02:48:31;;;;;;;58.13;22.77;;;;;-2.20;102099.00;;;;10491235;28;20765;-77
2021/12/21 02:53:33;;;;;;;46.30;19.33;;;;;-2.20;102095.00;;;;10491865;28;20296;-78
2021/12/21 02:58:35;;;;;;;37.03;19.80;;;;;-2.20;102086.00;;;;10507613;28;20193;-77
2021/12/21 03:03:37;;;;;;;37.07;20.23;;;;;-2.30;102091.00;;;;10508208;28;20603;-77
2021/12/21 03:08:45;;;;;;;47.50;21.50;;;;;-2.30;102091.00;;;;10490981;28;20606;-78
2021/12/21 03:13:54;;;;;;;39.03;17.93;;;;;-2.30;102097.00;;;;10507531;28;20700;-77
2021/12/21 03:18:57;;;;;;;38.27;18.23;;;;;-2.30;102092.00;;;;10507683;28;20185;-78
2021/12/21 03:23:59;;;;;;;39.73;18.07;;;;;-2.30;102092.00;;;;10490678;28;20200;-78
2021/12/21 03:29:03;;;;;;;40.50;18.13;;;;;-2.40;102083.00;;;;10466121;28;20198;-78
2021/12/21 03:34:06;;;;;;;34.47;18.67;;;;;-2.40;102083.00;;;;10480842;28;20304;-78
2021/12/21 03:39:15;;;;;;;36.87;17.87;;;;;-2.40;102078.00;;;;10481430;28;20208;-77
2021/12/21 03:44:18;;;;;;;37.67;18.37;;;;;-2.50;102075.00;;;;10473466;28;20246;-78
2021/12/21 03:54:32;;;;;;;34.10;19.07;;;;;-2.60;102075.00;;;;10448211;28;20330;-78
2021/12/21 03:59:34;;;;;;;45.17;20.20;;;;;-2.60;102070.00;;;;10464175;28;20255;-78
2021/12/21 04:04:37;;;;;;;43.10;19.17;;;;;-2.60;102063.00;;;;10466439;28;20190;-78
2021/12/21 04:09:39;;;;;;;47.63;20.00;;;;;-2.60;102073.00;;;;10457024;28;20197;-77
2021/12/21 04:14:41;;;;;;;36.83;18.53;;;;;-2.60;102053.00;;;;10481120;28;20267;-78
2021/12/21 04:19:45;;;;;;;42.83;20.97;;;;;-2.60;102060.00;;;;10481042;28;20193;-78
2021/12/21 04:24:48;;;;;;;43.57;19.23;;;;;-2.70;102050.00;;;;10497315;28;20185;-78
2021/12/21 04:29:50;;;;;;;34.50;18.57;;;;;-2.70;102055.00;;;;10497608;28;20189;-78
2021/12/21 04:34:52;;;;;;;41.97;20.53;;;;;-2.70;102038.00;;;;10464149;28;20286;-78
2021/12/21 04:40:03;;;;;;;39.07;19.83;;;;;-2.80;102050.00;;;;10497276;28;20217;-78
2021/12/21 04:45:13;;;;;;;35.00;18.80;;;;;-2.80;102055.00;;;;10448875;28;20191;-78
2021/12/21 04:50:14;;;;;;;35.97;18.77;;;;;-2.80;102053.00;;;;10447572;28;20193;-78
2021/12/21 04:55:17;;;;;;;39.23;18.67;;;;;-2.90;102053.00;;;;10448171;28;20206;-79
2021/12/21 05:00:19;;;;;;;35.20;17.43;;;;;-2.90;102056.00;;;;10431356;28;20224;-78
2021/12/21 05:05:21;;;;;;;41.27;17.80;;;;;-3.00;102058.00;;;;10464235;28;20235;-78
2021/12/21 05:10:23;;;;;;;31.13;16.53;;;;;-3.10;102059.00;;;;10479822;28;20214;-78
2021/12/21 05:15:25;;;;;;;38.43;16.97;;;;;-3.10;102057.00;;;;10495486;28;20204;-78
2021/12/21 05:20:27;;;;;;;38.90;17.57;;;;;-3.10;102059.00;;;;10496074;28;20196;-78
2021/12/21 05:25:30;;;;;;;36.47;17.40;;;;;-3.10;102055.00;;;;10529909;28;20640;-78
2021/12/21 05:30:34;;;;;;;33.03;16.57;;;;;-3.10;102075.00;;;;10495975;28;20729;-78
2021/12/21 05:35:37;;;;;;;35.70;18.03;;;;;-3.10;102058.00;;;;10433680;28;20221;-78
2021/12/21 05:40:42;;;;;;;36.97;18.57;;;;;-3.10;102050.00;;;;10445468;28;20591;-78
2021/12/21 05:45:44;;;;;;;38.87;18.70;;;;;-3.20;102056.00;;;;10470883;28;20189;-78
2021/12/21 05:50:46;;;;;;;35.33;17.40;;;;;-3.20;102060.00;;;;10437640;28;20248;-78
2021/12/21 05:55:48;;;;;;;43.10;19.97;;;;;-3.20;102071.00;;;;10470259;28;20267;-78
2021/12/21 06:00:50;;;;;;;30.87;17.47;;;;;-3.30;102071.00;;;;10486717;28;20656;-78
2021/12/21 06:05:52;;;;;;;39.83;19.53;;;;;-3.30;102071.00;;;;10469456;28;20732;-78
2021/12/21 06:10:56;;;;;;;37.60;18.23;;;;;-3.30;102075.00;;;;10502695;28;20193;-78
2021/12/21 06:16:25;;;;;;;34.37;18.27;;;;;-3.40;102080.00;;;;10469388;28;20217;-78
2021/12/21 06:26:51;;;;;;;36.23;18.80;;;;;-3.50;102091.00;;;;10433322;28;20552;-78
2021/12/21 06:31:54;;;;;;;38.90;18.33;;;;;-3.50;102085.00;;;;10451649;28;20263;-78
2021/12/21 06:36:56;;;;;;;32.07;17.77;;;;;-3.50;102088.00;;;;10467889;28;20235;-78
2021/12/21 06:41:58;;;;;;;41.57;20.17;;;;;-3.50;102084.00;;;;10451202;28;20656;-78
2021/12/21 06:52:06;;;;;;;48.90;21.03;;;;;-3.40;102086.00;;;;10483691;28;20706;-79
2021/12/21 06:57:08;;;;;;;40.10;18.87;;;;;-3.40;102090.00;;;;10444138;28;20198;-78
2021/12/21 07:02:10;;;;;;;44.17;19.50;;;;;-3.50;102075.00;;;;10458813;28;20221;-79
2021/12/21 07:07:12;;;;;;;30.57;16.80;;;;;-3.50;102075.00;;;;10442804;28;20292;-78
2021/12/21 07:22:36;;;;;;;35.50;18.10;;;;;-3.50;102084.00;;;;10524381;28;20189;-79
2021/12/21 07:27:38;;;;;;;33.43;18.07;;;;;-3.50;102071.00;;;;10507966;28;20242;-78
2021/12/21 07:32:40;;;;;;;34.17;17.83;;;;;-3.60;102086.00;;;;10465678;28;20265;-79
2021/12/21 07:37:42;;;;;;;26.77;17.00;;;;;-3.60;102088.00;;;;10446220;28;20194;-79
2021/12/21 07:42:44;;;;;;;44.33;22.67;;;;;-3.50;102100.00;;;;10498657;28;20208;-78
2021/12/21 07:47:46;;;;;;;43.07;21.70;;;;;-3.60;102091.00;;;;10465660;28;20197;-78
2021/12/21 07:52:50;;;;;;;38.83;21.40;;;;;-3.60;102113.00;;;;10432940;28;20305;-79
2021/12/21 07:57:52;;;;;;;43.83;21.63;;;;;-3.60;102100.00;;;;10465853;28;20190;-78
2021/12/21 08:02:56;;;;;;;45.13;21.90;;;;;-3.50;102102.00;;;;10465895;28;20190;-78
2021/12/21 08:08:10;;;;;;;36.50;18.60;;;;;-3.40;102091.00;;;;10465542;28;20197;-78
2021/12/21 08:13:12;;;;;;;41.53;20.53;;;;;-3.30;102100.00;;;;10464855;28;20542;-78
2021/12/21 08:18:15;;;;;;;42.53;22.13;;;;;-3.20;102105.00;;;;10448653;28;20194;-78
2021/12/21 08:23:17;;;;;;;34.17;20.73;;;;;-3.10;102090.00;;;;10448923;28;20194;-78
2021/12/21 08:28:18;;;;;;;39.47;22.03;;;;;-3.00;102091.00;;;;10482545;28;20208;-78
2021/12/21 08:33:21;;;;;;;38.10;22.27;;;;;-2.90;102089.00;;;;10500340;28;20692;-79
2021/12/21 08:38:23;;;;;;;38.33;20.67;;;;;-2.80;102096.00;;;;10442890;28;20193;-79
2021/12/21 08:43:28;;;;;;;40.23;21.03;;;;;-2.60;102102.00;;;;10483200;28;20534;-79
2021/12/21 08:48:31;;;;;;;39.53;20.33;;;;;-2.40;102092.00;;;;10491653;28;20233;-79
2021/12/21 08:53:33;;;;;;;44.27;19.80;;;;;-2.20;102091.00;;;;10463714;28;20205;-79
2021/12/21 08:58:35;;;;;;;36.27;20.97;;;;;-1.90;102095.00;;;;10463441;28;20248;-79
2021/12/21 09:03:38;;;;;;;42.07;20.47;;;;;-1.50;102095.00;;;;10463863;28;20201;-79
2021/12/21 09:08:40;;;;;;;45.50;23.40;;;;;-1.00;102092.00;;;;10488408;28;20300;-79
2021/12/21 09:13:42;;;;;;;40.37;20.93;;;;;-0.70;102095.00;;;;10512932;28;20254;-78
2021/12/21 09:18:44;;;;;;;33.63;19.73;;;;;-0.50;102094.00;;;;10496014;28;20593;-79
2021/12/21 09:23:46;;;;;;;40.93;21.83;;;;;-0.30;102104.00;;;;10512353;28;20226;-79
2021/12/21 09:28:48;;;;;;;39.53;20.23;;;;;0.00;102105.00;;;;10495466;28;20201;-79
2021/12/21 09:33:50;;;;;;;33.37;18.17;;;;;0.20;102103.00;;;;10473279;28;20573;-79
2021/12/21 09:38:52;;;;;;;40.20;19.27;;;;;0.40;102112.00;;;;10453837;28;20665;-79
2021/12/21 09:43:54;;;;;;;34.07;18.20;;;;;0.70;102117.00;;;;10470432;28;20236;-79
2021/12/21 09:48:56;;;;;;;37.13;19.10;;;;;1.00;102126.00;;;;10486940;28;20189;-79
2021/12/21 09:53:58;;;;;;;36.33;22.07;;;;;1.30;102134.00;;;;10476861;28;20301;-78
2021/12/21 09:59:02;;;;;;;47.87;26.10;;;;;1.50;102136.00;;;;10460767;28;20186;-78
2021/12/21 10:04:04;;;;;;;44.87;26.57;;;;;1.60;102138.00;;;;10461263;28;20190;-79
2021/12/21 10:09:07;;;;;;;49.20;27.17;;;;;1.70;102144.00;;;;10477092;28;20193;-78
2021/12/21 10:14:26;;;;;;;47.10;27.97;;;;;1.90;102148.00;;;;10436997;28;20205;-78
2021/12/21 10:19:27;;;;;;;36.97;24.77;;;;;2.10;102151.00;;;;10460905;28;20195;-79
2021/12/21 10:24:29;;;;;;;39.83;23.60;;;;;2.30;102158.00;;;;10443635;28;20190;-78
2021/12/21 10:29:46;;;;;;;31.20;18.57;;;;;2.50;102146.00;;;;10460208;28;20193;-78
2021/12/21 10:35:04;;;;;;;22.23;15.03;;;;;2.70;102142.00;;;;10471341;28;20341;-78
2021/12/21 10:40:12;;;;;;;24.20;14.30;;;;;3.00;102137.00;;;;10501581;28;20213;-78
2021/12/21 10:45:14;;;;;;;24.90;13.43;;;;;3.20;102138.00;;;;10450815;28;20186;-78
2021/12/21 10:50:16;;;;;;;20.40;13.10;;;;;3.30;102129.00;;;;10496986;28;20198;-78
2021/12/21 10:55:27;;;;;;;24.33;13.27;;;;;3.40;102117.00;;;;10425562;28;20214;-78
2021/12/21 11:00:29;;;;;;;23.17;11.70;;;;;3.40;102107.00;;;;10425641;28;20649;-78
2021/12/21 11:05:31;;;;;;;19.93;12.27;;;;;3.50;102099.00;;;;10425248;28;20194;-79
2021/12/21 11:10:36;;;;;;;19.90;12.20;;;;;3.60;102091.00;;;;10458578;28;20206;-78
2021/12/21 11:15:44;;;;;;;21.33;12.67;;;;;3.60;102091.00;;;;10457579;28;20673;-78
2021/12/21 11:20:50;;;;;;;16.37;11.33;;;;;3.70;102079.00;;;;10459251;28;20235;-79
2021/12/21 11:25:54;;;;;;;21.30;12.03;;;;;3.70;102058.00;;;;10457295;28;20198;-79
2021/12/21 11:31:01;;;;;;;24.03;13.03;;;;;3.70;102054.00;;;;10439742;28;20189;-78
2021/12/21 11:41:26;;;;;;;18.20;12.47;;;;;3.60;102062.00;;;;10500866;28;20220;-78
2021/12/21 11:47:01;;;;;;;24.73;13.13;;;;;3.60;102049.00;;;;10394736;28;20202;-78
2021/12/21 11:52:29;;;;;;;18.83;12.90;;;;;3.70;102030.00;;;;10453282;28;20201;-78
2021/12/21 11:57:48;;;;;;;22.07;13.03;;;;;3.80;102034.00;;;;10496120;28;20193;-78
2021/12/21 12:02:52;;;;;;;20.20;13.03;;;;;3.90;102043.00;;;;10481793;28;20197;-78
2021/12/21 12:08:05;;;;;;;22.07;12.67;;;;;4.10;102037.00;;;;10497884;28;20217;-78
2021/12/21 12:13:15;;;;;;;21.50;12.93;;;;;4.10;102023.00;;;;10464330;28;20209;-78
2021/12/21 12:18:23;;;;;;;20.53;11.93;;;;;4.10;102015.00;;;;10480363;28;20208;-78
2021/12/21 12:23:25;;;;;;;17.37;12.17;;;;;4.10;101994.00;;;;10447880;28;20189;-78
2021/12/21 12:28:34;;;;;;;23.90;13.07;;;;;4.20;101990.00;;;;10497368;28;20190;-78
2021/12/21 12:33:40;;;;;;;20.80;12.07;;;;;4.20;101991.00;;;;10470064;28;20222;-78
2021/12/21 12:38:44;;;;;;;17.60;11.87;;;;;4.20;101999.00;;;;10451842;28;20210;-78
2021/12/21 12:43:46;;;;;;;21.37;12.03;;;;;4.10;102003.00;;;;10496631;28;20189;-78
2021/12/21 12:48:48;;;;;;;26.47;12.50;;;;;4.00;102002.00;;;;10496933;28;20198;-78
2021/12/21 12:53:50;;;;;;;24.77;12.30;;;;;4.00;102008.00;;;;10463777;28;20210;-78
2021/12/21 12:59:04;;;;;;;15.40;11.07;;;;;4.10;102002.00;;;;10447360;28;20208;-78
2021/12/21 13:04:11;;;;;;;17.10;11.57;;;;;4.10;101993.00;;;;10462508;28;20193;-78
2021/12/21 13:09:18;;;;;;;21.33;12.97;;;;;4.10;101981.00;;;;10491634;28;20197;-79
2021/12/21 13:14:20;;;;;;;16.90;10.73;;;;;4.10;101993.00;;;;10479678;28;20244;-78
2021/12/21 13:19:25;;;;;;;17.87;11.13;;;;;4.10;101993.00;;;;10469889;28;20291;-79
2021/12/21 13:24:33;;;;;;;16.87;11.30;;;;;4.00;101984.00;;;;10478477;28;20197;-78
2021/12/21 13:29:35;;;;;;;19.17;11.40;;;;;3.90;101991.00;;;;10467272;28;20665;-79
2021/12/21 13:34:41;;;;;;;15.70;9.50;;;;;3.90;101969.00;;;;10470056;28;20213;-78
2021/12/21 13:39:50;;;;;;;16.33;9.23;;;;;3.80;101979.00;;;;10454815;28;20205;-79
2021/12/21 13:44:55;;;;;;;16.73;9.37;;;;;3.70;101983.00;;;;10486567;28;20189;-79
2021/12/21 13:50:13;;;;;;;14.73;9.00;;;;;3.60;101963.00;;;;10468787;28;20189;-79
2021/12/21 13:55:30;;;;;;;18.70;10.47;;;;;3.50;101962.00;;;;10480110;28;20216;-79
2021/12/21 14:00:37;;;;;;;17.53;9.70;;;;;3.40;101961.00;;;;10468669;28;20587;-78
2021/12/21 14:05:43;;;;;;;16.77;8.70;;;;;3.20;101963.00;;;;10452488;28;20280;-78
2021/12/21 14:10:51;;;;;;;13.30;8.77;;;;;3.00;101966.00;;;;10452871;28;20216;-79
2021/12/21 14:15:53;;;;;;;15.37;8.53;;;;;2.80;101962.00;;;;10463012;28;20198;-80
2021/12/21 14:21:07;;;;;;;18.80;8.40;;;;;2.70;101966.00;;;;10464158;28;20189;-78
2021/12/21 14:26:13;;;;;;;13.50;7.63;;;;;2.60;101974.00;;;;10457268;28;20193;-79
2021/12/21 14:31:21;;;;;;;11.47;7.17;;;;;2.50;101972.00;;;;10484259;28;20193;-78
2021/12/21 14:36:25;;;;;;;15.20;7.17;;;;;2.30;101973.00;;;;10454290;28;20213;-79
2021/12/21 14:41:32;;;;;;;14.37;8.07;;;;;2.30;101957.00;;;;10410503;28;20206;-79
2021/12/21 14:46:38;;;;;;;12.77;7.60;;;;;2.20;101959.00;;;;10441116;28;20193;-78
2021/12/21 14:51:51;;;;;;;16.20;9.07;;;;;2.10;101960.00;;;;10437859;28;20596;-79
2021/12/21 14:57:02;;;;;;;14.30;9.70;;;;;2.00;101968.00;;;;10455574;28;20210;-78
2021/12/21 15:02:25;;;;;;;14.90;8.70;;;;;1.90;101966.00;;;;10410738;28;20273;-79
2021/12/21 15:07:28;;;;;;;16.47;8.30;;;;;1.70;101956.00;;;;10471583;28;20240;-79
2021/12/21 15:12:30;;;;;;;13.17;7.53;;;;;1.60;101958.00;;;;10409375;28;20202;-78
2021/12/21 15:17:32;;;;;;;12.20;7.77;;;;;1.40;101959.00;;;;10439378;28;20240;-78
2021/12/21 15:22:35;;;;;;;13.33;9.07;;;;;1.30;101958.00;;;;10457386;28;20195;-78
2021/12/21 15:27:38;;;;;;;18.03;9.63;;;;;1.10;101970.00;;;;10446488;28;20197;-78
2021/12/21 15:32:42;;;;;;;16.53;9.87;;;;;0.90;101974.00;;;;10439326;28;20190;-78
2021/12/21 15:37:47;;;;;;;20.13;10.07;;;;;0.80;101980.00;;;;10492349;28;20210;-78
2021/12/21 15:42:52;;;;;;;17.37;9.30;;;;;0.50;101985.00;;;;10386353;28;20202;-78
2021/12/21 15:47:54;;;;;;;14.13;9.17;;;;;0.30;101985.00;;;;10414715;28;20227;-78
2021/12/21 15:52:56;;;;;;;15.47;9.70;;;;;0.10;101992.00;;;;10416012;28;20724;-78
2021/12/21 15:57:58;;;;;;;16.83;10.17;;;;;-0.10;101976.00;;;;10383502;28;20256;-78
2021/12/21 16:03:00;;;;;;;24.20;12.60;;;;;-0.20;101979.00;;;;10399582;28;20653;-78
2021/12/21 16:08:03;;;;;;;17.17;10.73;;;;;-0.40;101972.00;;;;10399197;28;20249;-79
2021/12/21 16:13:05;;;;;;;22.73;11.97;;;;;-0.50;101978.00;;;;10397132;28;20199;-79
2021/12/21 16:18:07;;;;;;;19.13;10.63;;;;;-0.60;101985.00;;;;10398367;28;20256;-79
2021/12/21 16:23:08;;;;;;;24.23;11.23;;;;;-0.70;101979.00;;;;10380752;28;20548;-78
2021/12/21 16:28:10;;;;;;;20.13;11.27;;;;;-0.80;101976.00;;;;10394071;28;20202;-78
2021/12/21 16:33:14;;;;;;;18.30;10.97;;;;;-0.90;101980.00;;;;10383098;28;20215;-78
2021/12/21 16:38:17;;;;;;;19.30;12.03;;;;;-1.00;101987.00;;;;10408954;28;20715;-78
2021/12/21 16:43:24;;;;;;;20.10;11.77;;;;;-1.10;101984.00;;;;10405711;28;20222;-78
2021/12/21 16:48:27;;;;;;;18.10;10.83;;;;;-1.20;101990.00;;;;10382509;28;20658;-78
2021/12/21 16:53:30;;;;;;;24.00;14.07;;;;;-1.20;101981.00;;;;10405293;28;20210;-78
2021/12/21 16:58:35;;;;;;;26.37;14.57;;;;;-1.20;101985.00;;;;10427832;28;20195;-78
2021/12/21 17:03:38;;;;;;;25.57;14.13;;;;;-1.30;101988.00;;;;10399776;28;20611;-78
2021/12/21 17:08:43;;;;;;;31.80;15.50;;;;;-1.40;101998.00;;;;10402391;28;20190;-78
2021/12/21 17:13:47;;;;;;;26.27;15.83;;;;;-1.40;102005.00;;;;10398505;28;20650;-78
2021/12/21 17:18:49;;;;;;;29.97;14.00;;;;;-1.40;102013.00;;;;10463405;28;20182;-78
2021/12/21 17:23:51;;;;;;;32.33;16.37;;;;;-1.50;102001.00;;;;10480455;28;20240;-78
2021/12/21 17:28:54;;;;;;;29.27;15.90;;;;;-1.60;102019.00;;;;10480233;28;20230;-78
2021/12/21 17:33:58;;;;;;;27.80;17.23;;;;;-1.60;102011.00;;;;10440252;28;20215;-78
2021/12/21 17:39:04;;;;;;;33.73;18.93;;;;;-1.70;102012.00;;;;10417197;28;20201;-78
2021/12/21 17:44:07;;;;;;;32.63;19.20;;;;;-1.70;102011.00;;;;10436404;28;20209;-78
2021/12/21 17:49:09;;;;;;;30.23;17.60;;;;;-1.70;102011.00;;;;10486560;28;20872;-78
2021/12/21 17:54:11;;;;;;;29.60;18.20;;;;;-1.80;102023.00;;;;10470504;28;20208;-78
2021/12/21 17:59:13;;;;;;;32.47;17.70;;;;;-1.80;102025.00;;;;10486153;28;20178;-79
2021/12/21 18:04:15;;;;;;;34.77;18.17;;;;;-1.90;102021.00;;;;10469459;28;20197;-78
2021/12/21 18:09:17;;;;;;;25.87;16.00;;;;;-1.90;102021.00;;;;10458396;28;20395;-78
2021/12/21 18:14:19;;;;;;;30.07;16.63;;;;;-1.90;102009.00;;;;10428523;28;20698;-78
2021/12/21 18:19:21;;;;;;;31.47;16.40;;;;;-2.00;102026.00;;;;10467142;28;20197;-78
2021/12/21 18:24:23;;;;;;;27.70;16.27;;;;;-2.00;102021.00;;;;10497752;28;20770;-78
2021/12/21 18:29:25;;;;;;;31.93;19.67;;;;;-2.10;102021.00;;;;10486056;28;20250;-78
2021/12/21 18:34:28;;;;;;;49.60;29.53;;;;;-2.10;102025.00;;;;10467266;28;20275;-79
2021/12/21 18:39:30;;;;;;;52.83;27.83;;;;;-2.00;102041.00;;;;10482102;28;20735;-78
2021/12/21 18:44:32;;;;;;;41.23;26.83;;;;;-2.10;102036.00;;;;10466804;28;20244;-78
2021/12/21 18:49:34;;;;;;;41.30;24.33;;;;;-2.10;102040.00;;;;10439715;28;20198;-78
2021/12/21 18:54:36;;;;;;;39.80;20.50;;;;;-2.10;102030.00;;;;10459637;28;20263;-78
2021/12/21 18:59:38;;;;;;;28.57;19.07;;;;;-2.00;102027.00;;;;10517262;28;20850;-78
2021/12/21 19:04:40;;;;;;;29.63;16.30;;;;;-2.00;102014.00;;;;10465593;28;20186;-78
2021/12/21 19:09:41;;;;;;;34.03;18.17;;;;;-2.00;102023.00;;;;10486932;28;20660;-78
2021/12/21 19:14:43;;;;;;;26.37;16.37;;;;;-2.10;102017.00;;;;10425180;28;20202;-78
2021/12/21 19:19:45;;;;;;;27.20;19.03;;;;;-2.10;102021.00;;;;10479832;28;20193;-78
2021/12/21 19:24:47;;;;;;;35.70;18.57;;;;;-2.10;102014.00;;;;10481387;28;20193;-78
2021/12/21 19:29:49;;;;;;;34.07;18.87;;;;;-2.10;102029.00;;;;10465661;28;20270;-78
2021/12/21 19:34:52;;;;;;;31.77;19.20;;;;;-2.00;102033.00;;;;10429540;28;20264;-79
2021/12/21 19:39:54;;;;;;;36.37;20.03;;;;;-2.10;102024.00;;;;10458508;28;20220;-78
2021/12/21 19:44:56;;;;;;;28.70;16.80;;;;;-2.20;102013.00;;;;10481384;28;20201;-78
2021/12/21 19:49:58;;;;;;;30.83;17.87;;;;;-2.20;102018.00;;;;10462051;28;20205;-79
2021/12/21 19:55:02;;;;;;;29.13;17.20;;;;;-2.30;102011.00;;;;10455970;28;20275;-78
2021/12/21 20:00:07;;;;;;;31.33;18.63;;;;;-2.40;102011.00;;;;10468152;28;20653;-78
2021/12/21 20:05:09;;;;;;;34.83;20.00;;;;;-2.40;102008.00;;;;10508778;28;20193;-78
2021/12/21 20:10:23;;;;;;;30.47;20.67;;;;;-2.40;102009.00;;;;10462191;28;20198;-78
2021/12/21 20:15:29;;;;;;;34.33;22.43;;;;;-2.50;102000.00;;;;10468689;28;20216;-79
2021/12/21 20:20:33;;;;;;;32.90;20.07;;;;;-2.50;102010.00;;;;10448464;28;20186;-79
2021/12/21 20:25:35;;;;;;;34.20;21.30;;;;;-2.60;102018.00;;;;10448681;28;20185;-78
2021/12/21 20:30:40;;;;;;;30.47;20.13;;;;;-2.60;102021.00;;;;10447387;28;20200;-79
2021/12/21 20:35:44;;;;;;;38.17;21.90;;;;;-2.70;102018.00;;;;10446243;28;20201;-79
2021/12/21 20:40:47;;;;;;;35.97;21.93;;;;;-2.70;102007.00;;;;10495817;28;20247;-79
2021/12/21 20:45:51;;;;;;;40.57;23.70;;;;;-2.80;102008.00;;;;10471523;28;20216;-79
2021/12/21 20:50:54;;;;;;;59.60;38.30;;;;;-2.80;102016.00;;;;10480546;28;20201;-79
2021/12/21 20:55:56;;;;;;;66.73;39.23;;;;;-2.90;102013.00;;;;10504157;28;20204;-79
2021/12/21 21:00:58;;;;;;;59.57;37.83;;;;;-2.90;102015.00;;;;10454610;28;20240;-79
2021/12/21 21:06:04;;;;;;;74.43;43.87;;;;;-3.00;102013.00;;;;10449762;28;20198;-79
2021/12/21 21:11:10;;;;;;;62.33;37.17;;;;;-3.00;102021.00;;;;10474520;28;20201;-78
2021/12/21 21:16:12;;;;;;;71.37;40.70;;;;;-3.10;102018.00;;;;10477030;28;20313;-78
2021/12/21 21:21:20;;;;;;;70.50;37.37;;;;;-3.10;102016.00;;;;10470735;28;20193;-79
2021/12/21 21:26:22;;;;;;;58.67;33.70;;;;;-3.20;102015.00;;;;10452790;28;20197;-78
2021/12/21 21:31:38;;;;;;;58.53;35.57;;;;;-3.20;102020.00;;;;10451686;28;20707;-80
2021/12/21 21:36:42;;;;;;;48.03;30.13;;;;;-3.20;102011.00;;;;10434118;28;20205;-78
2021/12/21 21:41:44;;;;;;;52.80;29.67;;;;;-3.20;102010.00;;;;10523843;28;20212;-78
2021/12/21 21:46:46;;;;;;;42.30;26.90;;;;;-3.30;102010.00;;;;10458431;28;20198;-78
2021/12/21 21:51:48;;;;;;;44.83;27.07;;;;;-3.30;102004.00;;;;10466838;28;20193;-78
2021/12/21 21:56:50;;;;;;;37.10;25.07;;;;;-3.40;102002.00;;;;10420305;28;20309;-78
2021/12/21 22:01:52;;;;;;;50.53;29.70;;;;;-3.30;102000.00;;;;10469325;28;20201;-78
2021/12/21 22:06:54;;;;;;;45.17;24.93;;;;;-3.40;102007.00;;;;10451775;28;20205;-78
2021/12/21 22:11:57;;;;;;;37.77;23.37;;;;;-3.40;102003.00;;;;10449827;28;20216;-78
2021/12/21 22:17:00;;;;;;;36.60;23.03;;;;;-3.50;101994.00;;;;10456321;28;20229;-78
2021/12/21 22:22:03;;;;;;;39.57;23.80;;;;;-3.50;102006.00;;;;10483857;28;20236;-78
2021/12/21 22:27:05;;;;;;;37.43;23.93;;;;;-3.50;102010.00;;;;10450444;28;20197;-78
2021/12/21 22:32:06;;;;;;;39.90;24.20;;;;;-3.50;102012.00;;;;10464854;28;20189;-78
2021/12/21 22:37:08;;;;;;;38.87;23.60;;;;;-3.50;102010.00;;;;10464574;28;20263;-78
2021/12/21 22:42:10;;;;;;;41.77;25.43;;;;;-3.60;102009.00;;;;10438898;28;20282;-79
2021/12/21 22:47:12;;;;;;;44.57;25.80;;;;;-3.60;102012.00;;;;10436266;28;20271;-79
2021/12/21 22:52:14;;;;;;;44.27;24.50;;;;;-3.70;102013.00;;;;10440206;28;20608;-78
2021/12/21 22:57:16;;;;;;;43.57;24.03;;;;;-3.70;102014.00;;;;10457382;28;20206;-78
2021/12/21 23:02:18;;;;;;;46.70;27.27;;;;;-3.80;102011.00;;;;10439732;28;20202;-78
2021/12/21 23:07:20;;;;;;;56.83;28.67;;;;;-3.80;102003.00;;;;10436415;28;20221;-78
2021/12/21 23:12:22;;;;;;;50.80;28.37;;;;;-3.70;101997.00;;;;10453384;28;20198;-78
2021/12/21 23:17:24;;;;;;;43.73;24.93;;;;;-3.60;101996.00;;;;10471236;28;20198;-79
2021/12/21 23:22:26;;;;;;;47.33;27.30;;;;;-3.50;101998.00;;;;10412405;28;20632;-78
2021/12/21 23:27:28;;;;;;;41.43;25.03;;;;;-3.40;101989.00;;;;10423411;28;20198;-78
2021/12/21 23:32:35;;;;;;;42.40;26.33;;;;;-3.40;101997.00;;;;10422318;28;20205;-78
2021/12/21 23:37:39;;;;;;;43.90;25.50;;;;;-3.40;101994.00;;;;10426627;28;20229;-80
2021/12/21 23:42:41;;;;;;;36.50;23.23;;;;;-3.50;101988.00;;;;10447600;28;20695;-78
2021/12/21 23:47:43;;;;;;;32.70;20.63;;;;;-3.60;101997.00;;;;10447936;28;20189;-78
2021/12/21 23:52:46;;;;;;;35.27;21.73;;;;;-3.60;102010.00;;;;10464023;28;20223;-78
2021/12/21 23:57:47;;;;;;;37.17;22.87;;;;;-3.70;102008.00;;;;10412943;28;20213;-80
